sensor_id;sensor_type;location;lat;lon;timestamp;temperature;humidity
39919;DHT22;25589;51.552;13.424;2023-01-01T00:00:00;16.80;99.90
39919;DHT22;25589;51.552;13.424;2023-01-01T00:02:26;16.80;99.90
39919;DHT22;25589;51.552;13.424;2023-01-01T00:04:52;16.80;99.90
39919;DHT22;25589;51.552;13.424;2023-01-01T00:07:17;16.90;99.90
39919;DHT22;25589;51.552;13.424;2023-01-01T00:09:43;16.90;99.90
39919;DHT22;25589;51.552;13.424;2023-01-01T00:12:27;16.90;99.90
39919;DHT22;25589;51.552;13.424;2023-01-01T00:14:53;16.80;99.90
39919;DHT22;25589;51.552;13.424;2023-01-01T00:17:18;16.80;99.90
39919;DHT22;25589;51.552;13.424;2023-01-01T00:19:44;16.80;99.90
39919;DHT22;25589;51.552;13.424;2023-01-01T00:22:09;16.80;99.90
39919;DHT22;25589;51.552;13.424;2023-01-01T00:24:35;16.90;99.90
39919;DHT22;25589;51.552;13.424;2023-01-01T00:27:00;16.90;99.90
39919;DHT22;25589;51.552;13.424;2023-01-01T00:29:26;16.90;99.90
39919;DHT22;25589;51.552;13.424;2023-01-01T00:31:51;16.90;99.90
39919;DHT22;25589;51.552;13.424;2023-01-01T00:34:17;16.90;99.90
39919;DHT22;25589;51.552;13.424;2023-01-01T00:36:42;16.90;99.90
39919;DHT22;25589;51.552;13.424;2023-01-01T00:39:08;16.90;99.90
39919;DHT22;25589;51.552;13.424;2023-01-01T00:41:33;16.90;99.90
39919;DHT22;25589;51.552;13.424;2023-01-01T00:43:59;16.90;99.90
39919;DHT22;25589;51.552;13.424;2023-01-01T00:46:24;17.00;99.90
39919;DHT22;25589;51.552;13.424;2023-01-01T00:48:50;17.00;99.90
39919;DHT22;25589;51.552;13.424;2023-01-01T00:51:16;17.00;99.90
39919;DHT22;25589;51.552;13.424;2023-01-01T00:53:41;17.00;99.90
39919;DHT22;25589;51.552;13.424;2023-01-01T00:56:07;16.90;99.90
39919;DHT22;25589;51.552;13.424;2023-01-01T00:58:33;17.00;99.90
39919;DHT22;25589;51.552;13.424;2023-01-01T01:00:58;17.10;99.90
39919;DHT22;25589;51.552;13.424;2023-01-01T01:03:24;17.00;99.90
39919;DHT22;25589;51.552;13.424;2023-01-01T01:08:31;16.90;99.90
39919;DHT22;25589;51.552;13.424;2023-01-01T01:11:24;17.00;99.90
39919;DHT22;25589;51.552;13.424;2023-01-01T01:13:52;17.00;99.90
39919;DHT22;25589;51.552;13.424;2023-01-01T01:16:26;17.00;99.90
39919;DHT22;25589;51.552;13.424;2023-01-01T01:18:53;17.00;99.90
39919;DHT22;25589;51.552;13.424;2023-01-01T01:21:21;17.00;99.90
39919;DHT22;25589;51.552;13.424;2023-01-01T01:23:47;17.00;99.90
39919;DHT22;25589;51.552;13.424;2023-01-01T01:28:44;16.90;99.90
39919;DHT22;25589;51.552;13.424;2023-01-01T01:31:10;16.90;99.90
39919;DHT22;25589;51.552;13.424;2023-01-01T01:33:36;16.90;99.90
39919;DHT22;25589;51.552;13.424;2023-01-01T01:36:03;16.90;99.90
39919;DHT22;25589;51.552;13.424;2023-01-01T01:38:29;16.90;99.90
39919;DHT22;25589;51.552;13.424;2023-01-01T01:40:54;16.90;99.90
39919;DHT22;25589;51.552;13.424;2023-01-01T01:43:25;16.90;99.90
39919;DHT22;25589;51.552;13.424;2023-01-01T01:45:55;16.90;99.90
39919;DHT22;25589;51.552;13.424;2023-01-01T01:48:23;16.90;99.90
39919;DHT22;25589;51.552;13.424;2023-01-01T01:50:50;16.80;99.90
39919;DHT22;25589;51.552;13.424;2023-01-01T01:53:24;16.80;99.90
39919;DHT22;25589;51.552;13.424;2023-01-01T01:55:55;16.80;99.90
39919;DHT22;25589;51.552;13.424;2023-01-01T01:58:21;16.80;99.90
39919;DHT22;25589;51.552;13.424;2023-01-01T02:00:48;16.70;99.90
39919;DHT22;25589;51.552;13.424;2023-01-01T02:03:26;16.70;99.90
39919;DHT22;25589;51.552;13.424;2023-01-01T02:05:53;16.70;99.90
39919;DHT22;25589;51.552;13.424;2023-01-01T02:08:20;16.70;99.90
39919;DHT22;25589;51.552;13.424;2023-01-01T02:10:45;16.60;99.90
39919;DHT22;25589;51.552;13.424;2023-01-01T02:13:11;16.60;99.90
39919;DHT22;25589;51.552;13.424;2023-01-01T02:15:55;16.50;99.90
39919;DHT22;25589;51.552;13.424;2023-01-01T02:18:42;16.50;99.90
39919;DHT22;25589;51.552;13.424;2023-01-01T02:21:34;16.50;99.90
39919;DHT22;25589;51.552;13.424;2023-01-01T02:27:03;16.30;99.90
39919;DHT22;25589;51.552;13.424;2023-01-01T02:29:41;16.40;99.90
39919;DHT22;25589;51.552;13.424;2023-01-01T02:34:40;16.20;99.90
39919;DHT22;25589;51.552;13.424;2023-01-01T02:37:09;16.20;99.90
39919;DHT22;25589;51.552;13.424;2023-01-01T02:39:38;16.20;99.90
39919;DHT22;25589;51.552;13.424;2023-01-01T02:42:06;16.10;99.90
39919;DHT22;25589;51.552;13.424;2023-01-01T02:44:35;16.00;99.90
39919;DHT22;25589;51.552;13.424;2023-01-01T02:47:07;16.00;99.90
39919;DHT22;25589;51.552;13.424;2023-01-01T02:49:35;16.00;99.90
39919;DHT22;25589;51.552;13.424;2023-01-01T02:52:07;16.00;99.90
39919;DHT22;25589;51.552;13.424;2023-01-01T02:55:00;15.90;99.90
39919;DHT22;25589;51.552;13.424;2023-01-01T02:57:40;15.90;99.90
39919;DHT22;25589;51.552;13.424;2023-01-01T03:00:15;15.90;99.90
39919;DHT22;25589;51.552;13.424;2023-01-01T03:03:23;15.90;99.90
39919;DHT22;25589;51.552;13.424;2023-01-01T03:06:27;15.90;99.90
39919;DHT22;25589;51.552;13.424;2023-01-01T03:14:34;15.90;99.90
39919;DHT22;25589;51.552;13.424;2023-01-01T03:17:19;15.90;99.90
39919;DHT22;25589;51.552;13.424;2023-01-01T03:19:47;15.90;99.90
39919;DHT22;25589;51.552;13.424;2023-01-01T03:22:16;15.80;99.90
39919;DHT22;25589;51.552;13.424;2023-01-01T03:25:13;15.90;99.90
39919;DHT22;25589;51.552;13.424;2023-01-01T03:27:44;15.80;99.90
39919;DHT22;25589;51.552;13.424;2023-01-01T03:30:13;15.80;99.90
39919;DHT22;25589;51.552;13.424;2023-01-01T03:32:53;15.80;99.90
39919;DHT22;25589;51.552;13.424;2023-01-01T03:35:40;15.90;99.90
39919;DHT22;25589;51.552;13.424;2023-01-01T03:38:14;15.80;99.90
39919;DHT22;25589;51.552;13.424;2023-01-01T03:40:42;15.80;99.90
39919;DHT22;25589;51.552;13.424;2023-01-01T03:43:16;15.80;99.90
39919;DHT22;25589;51.552;13.424;2023-01-01T03:45:45;15.80;99.90
39919;DHT22;25589;51.552;13.424;2023-01-01T03:48:12;15.80;99.90
39919;DHT22;25589;51.552;13.424;2023-01-01T03:51:04;15.80;99.90
39919;DHT22;25589;51.552;13.424;2023-01-01T03:53:39;15.80;99.90
39919;DHT22;25589;51.552;13.424;2023-01-01T03:56:21;15.80;99.90
39919;DHT22;25589;51.552;13.424;2023-01-01T03:59:03;15.80;99.90
39919;DHT22;25589;51.552;13.424;2023-01-01T04:01:33;16.60;99.90
39919;DHT22;25589;51.552;13.424;2023-01-01T04:04:02;15.80;99.90
39919;DHT22;25589;51.552;13.424;2023-01-01T04:06:31;15.80;99.90
39919;DHT22;25589;51.552;13.424;2023-01-01T04:08:58;15.80;99.90
39919;DHT22;25589;51.552;13.424;2023-01-01T04:11:27;15.80;99.90
39919;DHT22;25589;51.552;13.424;2023-01-01T04:14:12;15.80;99.90
39919;DHT22;25589;51.552;13.424;2023-01-01T04:16:38;15.80;99.90
39919;DHT22;25589;51.552;13.424;2023-01-01T04:19:04;15.80;99.90
39919;DHT22;25589;51.552;13.424;2023-01-01T04:21:32;15.80;99.90
39919;DHT22;25589;51.552;13.424;2023-01-01T04:23:58;15.70;99.90
39919;DHT22;25589;51.552;13.424;2023-01-01T04:26:23;15.70;99.90
39919;DHT22;25589;51.552;13.424;2023-01-01T04:28:49;15.80;99.90
39919;DHT22;25589;51.552;13.424;2023-01-01T04:31:15;15.70;99.90
39919;DHT22;25589;51.552;13.424;2023-01-01T04:33:40;15.70;99.90
39919;DHT22;25589;51.552;13.424;2023-01-01T04:36:08;15.70;99.90
39919;DHT22;25589;51.552;13.424;2023-01-01T04:38:34;15.70;99.90
39919;DHT22;25589;51.552;13.424;2023-01-01T04:41:01;15.70;99.90
39919;DHT22;25589;51.552;13.424;2023-01-01T04:43:28;15.70;99.90
39919;DHT22;25589;51.552;13.424;2023-01-01T04:45:57;15.70;99.90
39919;DHT22;25589;51.552;13.424;2023-01-01T04:48:23;15.70;99.90
39919;DHT22;25589;51.552;13.424;2023-01-01T04:51:03;15.60;99.90
39919;DHT22;25589;51.552;13.424;2023-01-01T04:53:32;15.60;99.90
39919;DHT22;25589;51.552;13.424;2023-01-01T04:58:31;15.60;99.90
39919;DHT22;25589;51.552;13.424;2023-01-01T05:00:56;15.60;99.90
39919;DHT22;25589;51.552;13.424;2023-01-01T05:03:22;15.60;99.90
39919;DHT22;25589;51.552;13.424;2023-01-01T05:06:03;15.60;99.90
39919;DHT22;25589;51.552;13.424;2023-01-01T05:08:30;15.60;99.90
39919;DHT22;25589;51.552;13.424;2023-01-01T05:11:07;15.60;99.90
39919;DHT22;25589;51.552;13.424;2023-01-01T05:13:34;15.60;99.90
39919;DHT22;25589;51.552;13.424;2023-01-01T05:16:04;15.50;99.90
39919;DHT22;25589;51.552;13.424;2023-01-01T05:18:30;15.60;99.90
39919;DHT22;25589;51.552;13.424;2023-01-01T05:21:04;15.50;99.90
39919;DHT22;25589;51.552;13.424;2023-01-01T05:23:30;15.50;99.90
39919;DHT22;25589;51.552;13.424;2023-01-01T05:25:57;15.50;99.90
39919;DHT22;25589;51.552;13.424;2023-01-01T05:28:23;15.50;99.90
39919;DHT22;25589;51.552;13.424;2023-01-01T05:30:50;15.50;99.90
39919;DHT22;25589;51.552;13.424;2023-01-01T05:33:16;15.50;99.90
39919;DHT22;25589;51.552;13.424;2023-01-01T05:35:43;15.50;99.90
39919;DHT22;25589;51.552;13.424;2023-01-01T05:38:08;15.90;99.90
39919;DHT22;25589;51.552;13.424;2023-01-01T05:40:36;15.50;99.90
39919;DHT22;25589;51.552;13.424;2023-01-01T05:43:02;15.50;99.90
39919;DHT22;25589;51.552;13.424;2023-01-01T05:45:27;15.50;99.90
39919;DHT22;25589;51.552;13.424;2023-01-01T05:47:53;15.50;99.90
39919;DHT22;25589;51.552;13.424;2023-01-01T05:50:18;15.40;99.90
39919;DHT22;25589;51.552;13.424;2023-01-01T05:52:44;15.40;99.90
39919;DHT22;25589;51.552;13.424;2023-01-01T05:55:10;15.40;99.90
39919;DHT22;25589;51.552;13.424;2023-01-01T05:57:35;15.40;99.90
39919;DHT22;25589;51.552;13.424;2023-01-01T06:00:01;15.40;99.90
39919;DHT22;25589;51.552;13.424;2023-01-01T06:02:29;15.40;99.90
39919;DHT22;25589;51.552;13.424;2023-01-01T06:04:55;15.30;99.90
39919;DHT22;25589;51.552;13.424;2023-01-01T06:07:21;15.30;99.90
39919;DHT22;25589;51.552;13.424;2023-01-01T06:09:47;15.30;99.90
39919;DHT22;25589;51.552;13.424;2023-01-01T06:12:12;15.30;99.90
39919;DHT22;25589;51.552;13.424;2023-01-01T06:14:38;15.30;99.90
39919;DHT22;25589;51.552;13.424;2023-01-01T06:17:04;15.30;99.90
39919;DHT22;25589;51.552;13.424;2023-01-01T06:19:29;15.30;99.90
39919;DHT22;25589;51.552;13.424;2023-01-01T06:21:55;15.30;99.90
39919;DHT22;25589;51.552;13.424;2023-01-01T06:24:20;15.30;99.90
39919;DHT22;25589;51.552;13.424;2023-01-01T06:26:46;15.30;99.90
39919;DHT22;25589;51.552;13.424;2023-01-01T06:29:11;15.30;99.90
39919;DHT22;25589;51.552;13.424;2023-01-01T06:31:37;15.20;99.90
39919;DHT22;25589;51.552;13.424;2023-01-01T06:34:02;15.30;99.90
39919;DHT22;25589;51.552;13.424;2023-01-01T06:36:28;15.20;99.90
39919;DHT22;25589;51.552;13.424;2023-01-01T06:38:55;15.20;99.90
39919;DHT22;25589;51.552;13.424;2023-01-01T06:41:25;15.20;99.90
39919;DHT22;25589;51.552;13.424;2023-01-01T06:43:51;15.20;99.90
39919;DHT22;25589;51.552;13.424;2023-01-01T06:46:21;15.20;99.90
39919;DHT22;25589;51.552;13.424;2023-01-01T06:48:52;15.20;99.90
39919;DHT22;25589;51.552;13.424;2023-01-01T06:51:21;15.20;99.90
39919;DHT22;25589;51.552;13.424;2023-01-01T06:53:48;15.20;99.90
39919;DHT22;25589;51.552;13.424;2023-01-01T06:56:14;15.20;99.90
39919;DHT22;25589;51.552;13.424;2023-01-01T06:58:40;15.20;99.90
39919;DHT22;25589;51.552;13.424;2023-01-01T07:01:20;15.30;99.90
39919;DHT22;25589;51.552;13.424;2023-01-01T07:03:57;15.30;99.90
39919;DHT22;25589;51.552;13.424;2023-01-01T07:06:24;15.30;99.90
39919;DHT22;25589;51.552;13.424;2023-01-01T07:08:51;15.30;99.90
39919;DHT22;25589;51.552;13.424;2023-01-01T07:11:16;15.20;99.90
39919;DHT22;25589;51.552;13.424;2023-01-01T07:13:42;15.20;99.90
39919;DHT22;25589;51.552;13.424;2023-01-01T07:16:08;15.30;99.90
39919;DHT22;25589;51.552;13.424;2023-01-01T07:18:34;15.30;99.90
39919;DHT22;25589;51.552;13.424;2023-01-01T07:21:01;15.30;99.90
39919;DHT22;25589;51.552;13.424;2023-01-01T07:23:28;15.30;99.90
39919;DHT22;25589;51.552;13.424;2023-01-01T07:25:55;15.30;99.90
39919;DHT22;25589;51.552;13.424;2023-01-01T07:28:22;15.30;99.90
39919;DHT22;25589;51.552;13.424;2023-01-01T07:30:48;15.50;99.90
39919;DHT22;25589;51.552;13.424;2023-01-01T07:33:16;15.30;99.90
39919;DHT22;25589;51.552;13.424;2023-01-01T07:35:42;15.30;99.90
39919;DHT22;25589;51.552;13.424;2023-01-01T07:38:12;15.30;99.90
39919;DHT22;25589;51.552;13.424;2023-01-01T07:40:37;15.30;99.90
39919;DHT22;25589;51.552;13.424;2023-01-01T07:43:03;15.30;99.90
39919;DHT22;25589;51.552;13.424;2023-01-01T07:45:29;15.30;99.90
39919;DHT22;25589;51.552;13.424;2023-01-01T07:47:56;15.30;99.90
39919;DHT22;25589;51.552;13.424;2023-01-01T07:50:24;15.30;99.90
39919;DHT22;25589;51.552;13.424;2023-01-01T07:52:49;15.40;99.90
39919;DHT22;25589;51.552;13.424;2023-01-01T07:55:17;15.30;99.90
39919;DHT22;25589;51.552;13.424;2023-01-01T07:57:43;15.30;99.90
39919;DHT22;25589;51.552;13.424;2023-01-01T08:00:11;15.40;99.90
39919;DHT22;25589;51.552;13.424;2023-01-01T08:02:42;15.30;99.90
39919;DHT22;25589;51.552;13.424;2023-01-01T08:05:09;15.30;99.90
39919;DHT22;25589;51.552;13.424;2023-01-01T08:07:35;15.30;99.90
39919;DHT22;25589;51.552;13.424;2023-01-01T08:10:00;15.30;99.90
39919;DHT22;25589;51.552;13.424;2023-01-01T08:12:26;15.30;99.90
39919;DHT22;25589;51.552;13.424;2023-01-01T08:14:52;15.30;99.90
39919;DHT22;25589;51.552;13.424;2023-01-01T08:17:17;15.30;99.90
39919;DHT22;25589;51.552;13.424;2023-01-01T08:19:43;15.30;99.90
39919;DHT22;25589;51.552;13.424;2023-01-01T08:22:13;15.30;99.90
39919;DHT22;25589;51.552;13.424;2023-01-01T08:24:39;15.30;99.90
39919;DHT22;25589;51.552;13.424;2023-01-01T08:27:04;15.30;99.90
39919;DHT22;25589;51.552;13.424;2023-01-01T08:29:30;15.30;99.90
39919;DHT22;25589;51.552;13.424;2023-01-01T08:31:56;15.30;99.90
39919;DHT22;25589;51.552;13.424;2023-01-01T08:34:21;15.30;99.90
39919;DHT22;25589;51.552;13.424;2023-01-01T08:36:47;15.30;99.90
39919;DHT22;25589;51.552;13.424;2023-01-01T08:39:12;15.30;99.90
39919;DHT22;25589;51.552;13.424;2023-01-01T08:41:38;15.30;99.90
39919;DHT22;25589;51.552;13.424;2023-01-01T08:44:03;15.30;99.90
39919;DHT22;25589;51.552;13.424;2023-01-01T08:46:29;15.40;99.90
39919;DHT22;25589;51.552;13.424;2023-01-01T08:48:55;15.40;99.90
39919;DHT22;25589;51.552;13.424;2023-01-01T08:51:20;15.40;99.90
39919;DHT22;25589;51.552;13.424;2023-01-01T08:53:46;15.40;99.90
39919;DHT22;25589;51.552;13.424;2023-01-01T08:56:12;15.40;99.90
39919;DHT22;25589;51.552;13.424;2023-01-01T08:58:40;15.50;99.90
39919;DHT22;25589;51.552;13.424;2023-01-01T09:01:06;15.50;99.90
39919;DHT22;25589;51.552;13.424;2023-01-01T09:03:32;15.50;99.90
39919;DHT22;25589;51.552;13.424;2023-01-01T09:05:59;15.50;99.90
39919;DHT22;25589;51.552;13.424;2023-01-01T09:08:25;15.50;99.90
39919;DHT22;25589;51.552;13.424;2023-01-01T09:10:50;15.60;99.90
39919;DHT22;25589;51.552;13.424;2023-01-01T09:13:19;15.60;99.90
39919;DHT22;25589;51.552;13.424;2023-01-01T09:15:45;15.60;99.90
39919;DHT22;25589;51.552;13.424;2023-01-01T09:18:11;15.70;99.90
39919;DHT22;25589;51.552;13.424;2023-01-01T09:20:37;15.70;99.90
39919;DHT22;25589;51.552;13.424;2023-01-01T09:23:03;15.70;99.90
39919;DHT22;25589;51.552;13.424;2023-01-01T09:25:29;15.80;99.90
39919;DHT22;25589;51.552;13.424;2023-01-01T09:27:59;15.80;99.90
39919;DHT22;25589;51.552;13.424;2023-01-01T09:30:25;16.00;99.90
39919;DHT22;25589;51.552;13.424;2023-01-01T09:32:51;15.80;99.90
39919;DHT22;25589;51.552;13.424;2023-01-01T09:35:16;15.80;99.90
39919;DHT22;25589;51.552;13.424;2023-01-01T09:37:42;15.80;99.90
39919;DHT22;25589;51.552;13.424;2023-01-01T09:40:25;15.80;99.90
39919;DHT22;25589;51.552;13.424;2023-01-01T09:43:03;16.10;99.90
39919;DHT22;25589;51.552;13.424;2023-01-01T09:45:40;15.90;99.90
39919;DHT22;25589;51.552;13.424;2023-01-01T09:48:13;16.00;99.90
39919;DHT22;25589;51.552;13.424;2023-01-01T09:50:42;16.00;99.90
39919;DHT22;25589;51.552;13.424;2023-01-01T09:56:01;16.10;99.90
39919;DHT22;25589;51.552;13.424;2023-01-01T09:58:32;16.10;99.90
39919;DHT22;25589;51.552;13.424;2023-01-01T10:01:37;16.10;99.90
39919;DHT22;25589;51.552;13.424;2023-01-01T10:04:20;16.10;99.90
39919;DHT22;25589;51.552;13.424;2023-01-01T10:07:18;16.20;99.90
39919;DHT22;25589;51.552;13.424;2023-01-01T10:10:25;16.40;99.90
39919;DHT22;25589;51.552;13.424;2023-01-01T10:16:14;16.40;99.90
39919;DHT22;25589;51.552;13.424;2023-01-01T10:18:44;16.40;99.90
39919;DHT22;25589;51.552;13.424;2023-01-01T10:21:35;16.40;99.90
39919;DHT22;25589;51.552;13.424;2023-01-01T10:24:35;16.40;99.90
39919;DHT22;25589;51.552;13.424;2023-01-01T10:27:03;16.50;99.90
39919;DHT22;25589;51.552;13.424;2023-01-01T10:29:47;16.50;99.90
39919;DHT22;25589;51.552;13.424;2023-01-01T10:32:18;16.50;99.90
39919;DHT22;25589;51.552;13.424;2023-01-01T10:34:44;16.50;99.90
39919;DHT22;25589;51.552;13.424;2023-01-01T10:37:10;16.50;99.90
39919;DHT22;25589;51.552;13.424;2023-01-01T10:39:37;16.50;99.90
39919;DHT22;25589;51.552;13.424;2023-01-01T10:42:03;16.60;99.90
39919;DHT22;25589;51.552;13.424;2023-01-01T10:44:31;16.60;99.90
39919;DHT22;25589;51.552;13.424;2023-01-01T10:47:02;16.60;99.90
39919;DHT22;25589;51.552;13.424;2023-01-01T10:49:29;16.60;99.90
39919;DHT22;25589;51.552;13.424;2023-01-01T10:51:54;16.60;99.90
39919;DHT22;25589;51.552;13.424;2023-01-01T10:54:36;16.60;99.90
39919;DHT22;25589;51.552;13.424;2023-01-01T10:57:17;16.60;99.90
39919;DHT22;25589;51.552;13.424;2023-01-01T10:59:45;16.80;99.90
39919;DHT22;25589;51.552;13.424;2023-01-01T11:02:15;16.80;99.90
39919;DHT22;25589;51.552;13.424;2023-01-01T11:04:41;16.90;99.90
39919;DHT22;25589;51.552;13.424;2023-01-01T11:07:07;16.90;99.90
39919;DHT22;25589;51.552;13.424;2023-01-01T11:09:33;16.90;99.90
39919;DHT22;25589;51.552;13.424;2023-01-01T11:12:07;17.60;99.90
39919;DHT22;25589;51.552;13.424;2023-01-01T11:14:47;17.10;99.90
39919;DHT22;25589;51.552;13.424;2023-01-01T11:17:23;17.10;99.90
39919;DHT22;25589;51.552;13.424;2023-01-01T11:19:49;17.20;99.90
39919;DHT22;25589;51.552;13.424;2023-01-01T11:22:46;17.20;99.90
39919;DHT22;25589;51.552;13.424;2023-01-01T11:25:22;17.20;99.90
39919;DHT22;25589;51.552;13.424;2023-01-01T11:27:50;17.30;99.90
39919;DHT22;25589;51.552;13.424;2023-01-01T11:32:50;17.20;99.90
39919;DHT22;25589;51.552;13.424;2023-01-01T11:35:20;17.30;99.90
39919;DHT22;25589;51.552;13.424;2023-01-01T11:37:47;17.30;99.90
39919;DHT22;25589;51.552;13.424;2023-01-01T11:40:23;17.20;99.90
39919;DHT22;25589;51.552;13.424;2023-01-01T11:42:56;17.20;99.90
39919;DHT22;25589;51.552;13.424;2023-01-01T11:45:26;17.20;99.90
39919;DHT22;25589;51.552;13.424;2023-01-01T11:48:01;17.10;99.90
39919;DHT22;25589;51.552;13.424;2023-01-01T11:50:31;17.10;99.90
39919;DHT22;25589;51.552;13.424;2023-01-01T11:53:19;17.00;99.90
39919;DHT22;25589;51.552;13.424;2023-01-01T12:01:04;16.80;99.90
39919;DHT22;25589;51.552;13.424;2023-01-01T12:03:41;16.90;99.90
39919;DHT22;25589;51.552;13.424;2023-01-01T12:06:28;16.90;99.90
39919;DHT22;25589;51.552;13.424;2023-01-01T12:09:41;16.90;99.90
39919;DHT22;25589;51.552;13.424;2023-01-01T12:11:51;16.90;99.90
39919;DHT22;25589;51.552;13.424;2023-01-01T12:17:38;17.00;99.90
39919;DHT22;25589;51.552;13.424;2023-01-01T12:20:18;17.00;99.90
39919;DHT22;25589;51.552;13.424;2023-01-01T12:22:47;17.00;99.90
39919;DHT22;25589;51.552;13.424;2023-01-01T12:25:15;17.10;99.90
39919;DHT22;25589;51.552;13.424;2023-01-01T12:31:02;17.10;99.90
39919;DHT22;25589;51.552;13.424;2023-01-01T12:42:51;17.10;99.90
39919;DHT22;25589;51.552;13.424;2023-01-01T12:45:43;17.10;99.90
39919;DHT22;25589;51.552;13.424;2023-01-01T12:48:32;17.30;99.90
39919;DHT22;25589;51.552;13.424;2023-01-01T12:51:12;17.10;99.90
39919;DHT22;25589;51.552;13.424;2023-01-01T12:54:03;17.10;99.90
39919;DHT22;25589;51.552;13.424;2023-01-01T12:56:37;17.10;99.90
39919;DHT22;25589;51.552;13.424;2023-01-01T12:59:16;17.10;99.90
39919;DHT22;25589;51.552;13.424;2023-01-01T13:01:44;17.10;99.90
39919;DHT22;25589;51.552;13.424;2023-01-01T13:06:41;17.10;99.90
39919;DHT22;25589;51.552;13.424;2023-01-01T13:09:20;17.10;99.90
39919;DHT22;25589;51.552;13.424;2023-01-01T13:11:51;17.10;99.90
39919;DHT22;25589;51.552;13.424;2023-01-01T13:14:17;17.20;99.90
39919;DHT22;25589;51.552;13.424;2023-01-01T13:16:49;17.10;99.90
39919;DHT22;25589;51.552;13.424;2023-01-01T13:19:45;17.10;99.90
39919;DHT22;25589;51.552;13.424;2023-01-01T13:25:19;17.10;99.90
39919;DHT22;25589;51.552;13.424;2023-01-01T13:33:24;17.00;99.90
39919;DHT22;25589;51.552;13.424;2023-01-01T13:38:58;17.20;99.90
39919;DHT22;25589;51.552;13.424;2023-01-01T13:41:43;17.00;99.90
39919;DHT22;25589;51.552;13.424;2023-01-01T13:44:17;17.00;99.90
39919;DHT22;25589;51.552;13.424;2023-01-01T13:47:07;17.00;99.90
39919;DHT22;25589;51.552;13.424;2023-01-01T13:50:01;16.80;99.90
39919;DHT22;25589;51.552;13.424;2023-01-01T13:52:55;16.80;99.90
39919;DHT22;25589;51.552;13.424;2023-01-01T13:55:44;16.80;99.90
39919;DHT22;25589;51.552;13.424;2023-01-01T13:58:45;16.80;99.90
39919;DHT22;25589;51.552;13.424;2023-01-01T14:01:41;16.80;99.90
39919;DHT22;25589;51.552;13.424;2023-01-01T14:04:23;16.70;99.90
39919;DHT22;25589;51.552;13.424;2023-01-01T14:06:51;16.70;99.90
39919;DHT22;25589;51.552;13.424;2023-01-01T14:09:19;16.70;99.90
39919;DHT22;25589;51.552;13.424;2023-01-01T14:11:45;16.60;99.90
39919;DHT22;25589;51.552;13.424;2023-01-01T14:14:25;16.60;99.90
39919;DHT22;25589;51.552;13.424;2023-01-01T14:17:05;16.70;99.90
39919;DHT22;25589;51.552;13.424;2023-01-01T14:19:31;16.60;99.90
39919;DHT22;25589;51.552;13.424;2023-01-01T14:21:57;16.60;99.90
39919;DHT22;25589;51.552;13.424;2023-01-01T14:24:24;16.60;99.90
39919;DHT22;25589;51.552;13.424;2023-01-01T14:26:51;16.60;99.90
39919;DHT22;25589;51.552;13.424;2023-01-01T14:29:25;16.60;99.90
39919;DHT22;25589;51.552;13.424;2023-01-01T14:31:52;16.50;99.90
39919;DHT22;25589;51.552;13.424;2023-01-01T14:34:31;16.50;99.90
39919;DHT22;25589;51.552;13.424;2023-01-01T14:36:59;16.60;99.90
39919;DHT22;25589;51.552;13.424;2023-01-01T14:39:29;16.60;99.90
39919;DHT22;25589;51.552;13.424;2023-01-01T14:42:06;16.60;99.90
39919;DHT22;25589;51.552;13.424;2023-01-01T14:44:35;16.60;99.90
39919;DHT22;25589;51.552;13.424;2023-01-01T14:47:02;16.50;99.90
39919;DHT22;25589;51.552;13.424;2023-01-01T14:49:35;16.50;99.90
39919;DHT22;25589;51.552;13.424;2023-01-01T14:52:02;16.50;99.90
39919;DHT22;25589;51.552;13.424;2023-01-01T14:54:36;16.40;99.90
39919;DHT22;25589;51.552;13.424;2023-01-01T14:57:09;16.50;99.90
39919;DHT22;25589;51.552;13.424;2023-01-01T14:59:35;16.40;99.90
39919;DHT22;25589;51.552;13.424;2023-01-01T15:02:15;16.40;99.90
39919;DHT22;25589;51.552;13.424;2023-01-01T15:04:42;16.40;99.90
39919;DHT22;25589;51.552;13.424;2023-01-01T15:07:23;16.40;99.90
39919;DHT22;25589;51.552;13.424;2023-01-01T15:09:51;16.40;99.90
39919;DHT22;25589;51.552;13.424;2023-01-01T15:12:18;16.40;99.90
39919;DHT22;25589;51.552;13.424;2023-01-01T15:14:44;16.30;99.90
39919;DHT22;25589;51.552;13.424;2023-01-01T15:17:13;16.40;99.90
39919;DHT22;25589;51.552;13.424;2023-01-01T15:19:41;16.30;99.90
39919;DHT22;25589;51.552;13.424;2023-01-01T15:22:16;16.30;99.90
39919;DHT22;25589;51.552;13.424;2023-01-01T15:24:46;16.30;99.90
39919;DHT22;25589;51.552;13.424;2023-01-01T15:27:39;16.20;99.90
39919;DHT22;25589;51.552;13.424;2023-01-01T15:30:06;16.20;99.90
39919;DHT22;25589;51.552;13.424;2023-01-01T15:32:36;16.20;99.90
39919;DHT22;25589;51.552;13.424;2023-01-01T15:35:19;16.10;99.90
39919;DHT22;25589;51.552;13.424;2023-01-01T15:37:51;16.10;99.90
39919;DHT22;25589;51.552;13.424;2023-01-01T15:43:07;16.10;99.90
39919;DHT22;25589;51.552;13.424;2023-01-01T15:45:39;16.10;99.90
39919;DHT22;25589;51.552;13.424;2023-01-01T15:48:19;16.10;99.90
39919;DHT22;25589;51.552;13.424;2023-01-01T15:55:53;16.00;99.90
39919;DHT22;25589;51.552;13.424;2023-01-01T15:58:35;15.90;99.90
39919;DHT22;25589;51.552;13.424;2023-01-01T16:01:04;15.90;99.90
39919;DHT22;25589;51.552;13.424;2023-01-01T16:03:32;15.90;99.90
39919;DHT22;25589;51.552;13.424;2023-01-01T16:05:58;15.80;99.90
39919;DHT22;25589;51.552;13.424;2023-01-01T16:08:24;15.90;99.90
39919;DHT22;25589;51.552;13.424;2023-01-01T16:10:50;15.80;99.90
39919;DHT22;25589;51.552;13.424;2023-01-01T16:13:16;15.80;99.90
39919;DHT22;25589;51.552;13.424;2023-01-01T16:15:54;15.80;99.90
39919;DHT22;25589;51.552;13.424;2023-01-01T16:18:25;15.90;99.90
39919;DHT22;25589;51.552;13.424;2023-01-01T16:20:54;15.90;99.90
39919;DHT22;25589;51.552;13.424;2023-01-01T16:23:19;15.90;99.90
39919;DHT22;25589;51.552;13.424;2023-01-01T16:25:45;15.90;99.90
39919;DHT22;25589;51.552;13.424;2023-01-01T16:28:10;15.80;99.90
39919;DHT22;25589;51.552;13.424;2023-01-01T16:30:36;15.70;99.90
39919;DHT22;25589;51.552;13.424;2023-01-01T16:33:03;15.70;99.90
39919;DHT22;25589;51.552;13.424;2023-01-01T16:35:33;15.60;99.90
39919;DHT22;25589;51.552;13.424;2023-01-01T16:37:59;15.60;99.90
39919;DHT22;25589;51.552;13.424;2023-01-01T16:40:24;15.50;99.90
39919;DHT22;25589;51.552;13.424;2023-01-01T16:42:50;15.60;99.90
39919;DHT22;25589;51.552;13.424;2023-01-01T16:45:17;15.50;99.90
39919;DHT22;25589;51.552;13.424;2023-01-01T16:47:44;15.60;99.90